Kent, WA (98042)

4:34 AM PDT on August 31, 2014 (GMT -0700)
KWACOVIN9 | Change Station
CLOSE
Current Station
Personal Weather Station
Location: Covington, WA
Elevation: 528 ft
Nearby Weather Stations

Elev 528 ft 47.37 °N, 122.07 °W | Updated 3 minutes ago

Overcast
Overcast
55.0 °F
Feels Like 55.0 °F
N
0.0
Wind Variable Wind from East
Gusts 0.0 mph

Today
High -- | Low -- °F
--% Chance of Precip.
Yesterday
High -- | Low -- °F
Precip. -- in
6:26 AM 7:50 PM
Waxing Crescent, 30% visible
Pressure 30.02 in
Visibility 10.0 miles
Clouds Overcast 1900 ft
Dew Point 54 °F
Humidity 97%
Rainfall 0.00 in
Snow Depth Not available.
UV 0 out of 12
Pollen 1.90 out of 12
PM2.5 Good
Flu Activity Not available.
METAR KRNT 311053Z AUTO 12003KT 10SM OVC019 15/13 A3001 RMK AO2 RAB08E33 SLP166 P0005 T01500133

More Conditions Fewer Conditions

Pressure 30.02 in
Visibility 10.0 miles
Clouds Overcast 1900 ft
Dew Point 54 °F
Humidity 97%
Rainfall 0.00 in
Snow Depth Not available.
UV 0 out of 12
Pollen 1.90 out of 12
PM2.5 Good
Flu Activity Not available.
METAR KRNT 311053Z AUTO 12003KT 10SM OVC019 15/13 A3001 RMK AO2 RAB08E33 SLP166 P0005 T01500133

More Conditions Fewer Conditions

10-Day Weather Forecast

Almanac

Astronomy

Aug. 31, 2014 Rise Set
Actual Time 6:26 AM PDT 7:50 PM PDT
Civil Twilight 5:54 AM PDT 8:22 PM PDT
Nautical Twilight 5:15 AM PDT 9:00 PM PDT
Astronomical Twilight 4:33 AM PDT 9:41 PM PDT
Moon 12:43 PM PDT 10:42 PM PDT
Length of Visible Light 14h 27m
Length of Day
13h 24m
Tomorrow will be 3m 16s shorter.
Waxing Crescent, 30% of the Moon is Illuminated
Today
Waxing Crescent
Sep 2
First Quarter
Sep 8
Full
Sep 15
Last Quarter
Sep 24
New

Today's Extremes

State Highs State Lows

Community

WunderPhotos

Upload Photos

1,748,843 photos uploaded!

Nearby

Air Quality

  Air Quality AQ Index Pollutant
Yesterday Good
PM2.5
Yesterday Good
OZONE
Current Good
PM2.5
Sunday Good
OZONE
Sunday Good
PM2.5
Monday Good
OZONE
Monday Good
PM2.5
Tuesday Good
OZONE
Tuesday Good
PM2.5
Wednesday Good
OZONE
Wednesday Good
PM2.5

Snow Depth

Station Depth Elevation
Mount Gardner 0 in 3000 ft
Burnt Mountain 0 in 4200 ft
Meadows Pass 1 in 3500 ft
Skookum Creek 0 in 3920 ft
Olallie Meadows 0 in 3700 ft

Earthquake Activity

City Distance Mag. Time & Date
No recent earthquake activity has been reported nearby.
Minimum magnitude displayed is 2.5.

Coastal Water Temperatures

Place Temperature
Port Townsend, WA 53.1 °F
Seattle, WA 55.9 °F
Friday Harbor, WA 53.1 °F
Tacoma, WA 55.9 °F

Nearby Weather Stations